Orange8 — JL6278 — position and weather

sailwx.info

Track history (hours):
 
Tides and Currents Weather Stations Pressure Air Temp Water Temp Dewpoint Dewpoint Depression Visibility Wind Speed Wind Dir Waves Ship Positions

Orange8

Last reported at 2017-Feb-27 14:34 UTC. Time now 2017-Feb-28 05:26 UTC.
Position N 34°37' E 134°56'.

Length 164 m; draft 5 m.

Type: Passenger vessel. MMSI: 431501603.

Date/timePositionNaut miles runAvg speedWind from/ knotsBaromVisibWave heightAir tempDewpointWater temp
2017-Feb-27 14:34N 34°37' E 134°56'1918.7
2017-Feb-27 13:33N 34°36' E 135°18'6 6.1
2017-Feb-27 12:33N 34°37' E 135°26'0 0.0
2017-Feb-27 11:27N 34°37' E 135°26'0 0.0
2017-Feb-27 07:21N 34°37' E 135°26'0 0.0
2017-Feb-27 05:33N 34°37' E 135°26'0 0.0
2017-Feb-27 03:21N 34°37' E 135°26'0 0.0
2017-Feb-27 02:33N 34°37' E 135°26'0 0.0
2017-Feb-27 01:27N 34°37' E 135°26'0 0.0
2017-Feb-27 00:21N 34°37' E 135°26'0 0.0
2017-Feb-26 22:27N 34°37' E 135°26'0 0.0
2017-Feb-26 21:33N 34°37' E 135°26'6 6.1
2017-Feb-26 20:34N 34°36' E 135°19'1818.3
2017-Feb-26 19:34N 34°36' E 134°56'9 0.3
2017-Feb-25 15:03N 34°33' E 134°46'1018.7
2017-Feb-25 14:32N 34°37' E 134°57'1818.2
2017-Feb-25 13:33N 34°36' E 135°19'6 2.0
2017-Feb-25 10:31N 34°37' E 135°26'0 0.0
2017-Feb-25 07:18N 34°37' E 135°26'0 0.0
2017-Feb-25 06:30N 34°37' E 135°26'0 0.0
2017-Feb-25 05:24N 34°37' E 135°26'0 0.0
2017-Feb-25 04:24N 34°37' E 135°26'0 0.0
2017-Feb-25 03:12N 34°37' E 135°26'0 0.0
2017-Feb-25 02:24N 34°37' E 135°26'0 0.0
2017-Feb-25 01:31N 34°37' E 135°26'0 0.0
2017-Feb-25 00:31N 34°37' E 135°26'0 0.0
2017-Feb-24 23:30N 34°37' E 135°26'0 0.0
2017-Feb-24 22:25N 34°37' E 135°26'0 0.0
2017-Feb-24 21:25N 34°37' E 135°26'5 6.1
2017-Feb-24 20:33N 34°36' E 135°20'1818.0
2017-Feb-24 19:33N 34°37' E 134°58'1 0.0
2017-Feb-23 14:33N 34°37' E 134°57'1817.8
2017-Feb-23 13:34N 34°36' E 135°18'6 5.6
2017-Feb-23 12:25N 34°37' E 135°26'0 0.0
2017-Feb-23 11:31N 34°37' E 135°26'0 0.0
2017-Feb-23 10:25N 34°37' E 135°26'0 0.0
2017-Feb-23 09:31N 34°37' E 135°26'0 0.0
2017-Feb-23 08:31N 34°37' E 135°26'0 0.0
2017-Feb-23 07:31N 34°37' E 135°26'0 0.0
2017-Feb-23 06:19N 34°37' E 135°26'0 0.0
2017-Feb-23 05:25N 34°37' E 135°26'0 0.0
2017-Feb-23 04:31N 34°37' E 135°26'0 0.0
2017-Feb-23 03:31N 34°37' E 135°26'0 0.0
2017-Feb-23 02:31N 34°37' E 135°26'0 0.0
2017-Feb-23 01:31N 34°37' E 135°26'0 0.0
2017-Feb-23 00:25N 34°37' E 135°26'0 0.0
2017-Feb-22 23:19N 34°37' E 135°26'0 0.0
2017-Feb-22 22:25N 34°37' E 135°26'0 0.0
2017-Feb-22 21:25N 34°37' E 135°26'5 5.5
2017-Feb-22 20:33N 34°36' E 135°20'1817.6
2017-Feb-22 19:33N 34°37' E 134°59'3 0.2
2017-Feb-22 05:11N 34°36' E 134°55'1117.2
2017-Feb-22 04:33N 34°36' E 135°08'1514.5
2017-Feb-22 03:33N 34°37' E 135°26'0 0.0
2017-Feb-22 02:32N 34°37' E 135°26'0 0.0
2017-Feb-22 01:32N 34°37' E 135°26'0 0.0
2017-Feb-22 00:32N 34°37' E 135°26'0 0.0
2017-Feb-21 23:32N 34°37' E 135°26'0 0.0
2017-Feb-21 22:32N 34°37' E 135°26'0 0.0
2017-Feb-21 21:32N 34°37' E 135°26'6 6.3
2017-Feb-21 20:33N 34°36' E 135°19'1818.0
2017-Feb-21 19:33N 34°36' E 134°57'4 0.3
2017-Feb-21 05:20N 34°35' E 134°52'1417.8
2017-Feb-21 04:33N 34°36' E 135°09'1414.3
2017-Feb-21 03:33N 34°37' E 135°26'0 0.0
2017-Feb-21 02:16N 34°37' E 135°26'0 0.0
2017-Feb-21 01:28N 34°37' E 135°26'0 0.0
2017-Feb-21 00:22N 34°37' E 135°26'0 0.0
2017-Feb-20 23:28N 34°37' E 135°26'0 0.0
2017-Feb-20 22:28N 34°37' E 135°26'0 0.0
2017-Feb-20 21:28N 34°37' E 135°26'5 5.8
2017-Feb-20 20:34N 34°36' E 135°20'1818.2
2017-Feb-20 19:34N 34°36' E 134°57'5 0.4
2017-Feb-20 05:17N 34°35' E 134°51'1318.1
2017-Feb-20 04:33N 34°36' E 135°07'1515.5
2017-Feb-20 03:33N 34°37' E 135°26'0 0.2
2017-Feb-20 02:33N 34°37' E 135°26'0 0.0
2017-Feb-20 01:27N 34°37' E 135°26'0 0.0
2017-Feb-20 00:33N 34°37' E 135°26'0 0.0
2017-Feb-19 23:33N 34°37' E 135°26'0 0.0
2017-Feb-19 22:33N 34°37' E 135°26'0 0.0
2017-Feb-19 21:33N 34°37' E 135°26'4 3.8
2017-Feb-19 20:33N 34°37' E 135°21'1918.7
2017-Feb-19 19:33N 34°37' E 134°59'6 0.4
2017-Feb-19 05:16N 34°35' E 134°51'1318.9
2017-Feb-19 04:34N 34°36' E 135°07'1514.6
2017-Feb-19 03:31N 34°37' E 135°26'0 0.0
2017-Feb-19 02:31N 34°37' E 135°26'0 0.0
2017-Feb-19 01:25N 34°37' E 135°26'0 0.0
2017-Feb-19 00:31N 34°37' E 135°26'0 0.0
2017-Feb-18 23:31N 34°37' E 135°26'0 0.0
2017-Feb-18 22:31N 34°37' E 135°26'0 0.0
2017-Feb-18 21:31N 34°37' E 135°26'5 5.7
2017-Feb-18 20:33N 34°36' E 135°19'1918.5
2017-Feb-18 19:33N 34°36' E 134°57'4 0.3
2017-Feb-18 05:10N 34°35' E 134°53'1219.1
2017-Feb-18 04:33N 34°36' E 135°07'1615.5
2017-Feb-18 03:33N 34°37' E 135°26'0 0.0
2017-Feb-18 02:29N 34°37' E 135°26'0 0.0
2017-Feb-18 01:29N 34°37' E 135°26'0 0.0
2017-Feb-18 00:23N 34°37' E 135°26'0 0.0
2017-Feb-17 23:29N 34°37' E 135°26'0 0.0
2017-Feb-17 21:23N 34°37' E 135°26'5 5.7
2017-Feb-17 20:33N 34°36' E 135°20'1817.8
2017-Feb-17 19:33N 34°37' E 134°59'  
Track history (hours):
 
Tides and Currents Weather Stations Pressure Air Temp Water Temp Dewpoint Dewpoint Depression Visibility Wind Speed Wind Dir Waves Ship Positions

Orange8

Last reported at 2017-Feb-27 14:34 UTC. Time now 2017-Feb-28 05:26 UTC.
Position N 34°37' E 134°56'.

Length 164 m; draft 5 m.

Type: Passenger vessel. MMSI: 431501603.

Date/timePositionNaut miles runAvg speedWind from/ knotsBaromVisibWave heightAir tempDewpointWater temp
2017-Feb-27 14:34N 34°37' E 134°56'1918.7
2017-Feb-27 13:33N 34°36' E 135°18'6 6.1
2017-Feb-27 12:33N 34°37' E 135°26'0 0.0
2017-Feb-27 11:27N 34°37' E 135°26'0 0.0
2017-Feb-27 07:21N 34°37' E 135°26'0 0.0
2017-Feb-27 05:33N 34°37' E 135°26'0 0.0
2017-Feb-27 03:21N 34°37' E 135°26'0 0.0
2017-Feb-27 02:33N 34°37' E 135°26'0 0.0
2017-Feb-27 01:27N 34°37' E 135°26'0 0.0
2017-Feb-27 00:21N 34°37' E 135°26'0 0.0
2017-Feb-26 22:27N 34°37' E 135°26'0 0.0
2017-Feb-26 21:33N 34°37' E 135°26'6 6.1
2017-Feb-26 20:34N 34°36' E 135°19'1818.3
2017-Feb-26 19:34N 34°36' E 134°56'9 0.3
2017-Feb-25 15:03N 34°33' E 134°46'1018.7
2017-Feb-25 14:32N 34°37' E 134°57'1818.2
2017-Feb-25 13:33N 34°36' E 135°19'6 2.0
2017-Feb-25 10:31N 34°37' E 135°26'0 0.0
2017-Feb-25 07:18N 34°37' E 135°26'0 0.0
2017-Feb-25 06:30N 34°37' E 135°26'0 0.0
2017-Feb-25 05:24N 34°37' E 135°26'0 0.0
2017-Feb-25 04:24N 34°37' E 135°26'0 0.0
2017-Feb-25 03:12N 34°37' E 135°26'0 0.0
2017-Feb-25 02:24N 34°37' E 135°26'0 0.0
2017-Feb-25 01:31N 34°37' E 135°26'0 0.0
2017-Feb-25 00:31N 34°37' E 135°26'0 0.0
2017-Feb-24 23:30N 34°37' E 135°26'0 0.0
2017-Feb-24 22:25N 34°37' E 135°26'0 0.0
2017-Feb-24 21:25N 34°37' E 135°26'5 6.1
2017-Feb-24 20:33N 34°36' E 135°20'1818.0
2017-Feb-24 19:33N 34°37' E 134°58'1 0.0
2017-Feb-23 14:33N 34°37' E 134°57'1817.8
2017-Feb-23 13:34N 34°36' E 135°18'6 5.6
2017-Feb-23 12:25N 34°37' E 135°26'0 0.0
2017-Feb-23 11:31N 34°37' E 135°26'0 0.0
2017-Feb-23 10:25N 34°37' E 135°26'0 0.0
2017-Feb-23 09:31N 34°37' E 135°26'0 0.0
2017-Feb-23 08:31N 34°37' E 135°26'0 0.0
2017-Feb-23 07:31N 34°37' E 135°26'0 0.0
2017-Feb-23 06:19N 34°37' E 135°26'0 0.0
2017-Feb-23 05:25N 34°37' E 135°26'0 0.0
2017-Feb-23 04:31N 34°37' E 135°26'0 0.0
2017-Feb-23 03:31N 34°37' E 135°26'0 0.0
2017-Feb-23 02:31N 34°37' E 135°26'0 0.0
2017-Feb-23 01:31N 34°37' E 135°26'0 0.0
2017-Feb-23 00:25N 34°37' E 135°26'0 0.0
2017-Feb-22 23:19N 34°37' E 135°26'0 0.0
2017-Feb-22 22:25N 34°37' E 135°26'0 0.0
2017-Feb-22 21:25N 34°37' E 135°26'5 5.5
2017-Feb-22 20:33N 34°36' E 135°20'1817.6
2017-Feb-22 19:33N 34°37' E 134°59'3 0.2
2017-Feb-22 05:11N 34°36' E 134°55'1117.2
2017-Feb-22 04:33N 34°36' E 135°08'1514.5
2017-Feb-22 03:33N 34°37' E 135°26'0 0.0
2017-Feb-22 02:32N 34°37' E 135°26'0 0.0
2017-Feb-22 01:32N 34°37' E 135°26'0 0.0
2017-Feb-22 00:32N 34°37' E 135°26'0 0.0
2017-Feb-21 23:32N 34°37' E 135°26'0 0.0
2017-Feb-21 22:32N 34°37' E 135°26'0 0.0
2017-Feb-21 21:32N 34°37' E 135°26'6 6.3
2017-Feb-21 20:33N 34°36' E 135°19'1818.0
2017-Feb-21 19:33N 34°36' E 134°57'4 0.3
2017-Feb-21 05:20N 34°35' E 134°52'1417.8
2017-Feb-21 04:33N 34°36' E 135°09'1414.3
2017-Feb-21 03:33N 34°37' E 135°26'0 0.0
2017-Feb-21 02:16N 34°37' E 135°26'0 0.0
2017-Feb-21 01:28N 34°37' E 135°26'0 0.0
2017-Feb-21 00:22N 34°37' E 135°26'0 0.0
2017-Feb-20 23:28N 34°37' E 135°26'0 0.0
2017-Feb-20 22:28N 34°37' E 135°26'0 0.0
2017-Feb-20 21:28N 34°37' E 135°26'5 5.8
2017-Feb-20 20:34N 34°36' E 135°20'1818.2
2017-Feb-20 19:34N 34°36' E 134°57'5 0.4
2017-Feb-20 05:17N 34°35' E 134°51'1318.1
2017-Feb-20 04:33N 34°36' E 135°07'1515.5
2017-Feb-20 03:33N 34°37' E 135°26'0 0.2
2017-Feb-20 02:33N 34°37' E 135°26'0 0.0
2017-Feb-20 01:27N 34°37' E 135°26'0 0.0
2017-Feb-20 00:33N 34°37' E 135°26'0 0.0
2017-Feb-19 23:33N 34°37' E 135°26'0 0.0
2017-Feb-19 22:33N 34°37' E 135°26'0 0.0
2017-Feb-19 21:33N 34°37' E 135°26'4 3.8
2017-Feb-19 20:33N 34°37' E 135°21'1918.7
2017-Feb-19 19:33N 34°37' E 134°59'6 0.4
2017-Feb-19 05:16N 34°35' E 134°51'1318.9
2017-Feb-19 04:34N 34°36' E 135°07'1514.6
2017-Feb-19 03:31N 34°37' E 135°26'0 0.0
2017-Feb-19 02:31N 34°37' E 135°26'0 0.0
2017-Feb-19 01:25N 34°37' E 135°26'0 0.0
2017-Feb-19 00:31N 34°37' E 135°26'0 0.0
2017-Feb-18 23:31N 34°37' E 135°26'0 0.0
2017-Feb-18 22:31N 34°37' E 135°26'0 0.0
2017-Feb-18 21:31N 34°37' E 135°26'5 5.7
2017-Feb-18 20:33N 34°36' E 135°19'1918.5
2017-Feb-18 19:33N 34°36' E 134°57'4 0.3
2017-Feb-18 05:10N 34°35' E 134°53'1219.1
2017-Feb-18 04:33N 34°36' E 135°07'1615.5
2017-Feb-18 03:33N 34°37' E 135°26'0 0.0
2017-Feb-18 02:29N 34°37' E 135°26'0 0.0
2017-Feb-18 01:29N 34°37' E 135°26'0 0.0
2017-Feb-18 00:23N 34°37' E 135°26'0 0.0
2017-Feb-17 23:29N 34°37' E 135°26'0 0.0
2017-Feb-17 21:23N 34°37' E 135°26'5 5.7
2017-Feb-17 20:33N 34°36' E 135°20'1817.8
2017-Feb-17 19:33N 34°37' E 134°59'  

Dump ship's entire track history